VLVT/VTE METAR and TAF weather

Enter ICAO airport designator
Station Type Date Time Source
VLVT METAR 2020/02/24 08:30 UTC NOAA

VLVT 240830Z 20004KT 8000 SCT200 30/14 Q1013 NOSIG


Station Type Date Time Source
VLVT Decoded METAR 2020/02/24 08:30 UTC NOAA

Vientiane, Laos (VLVT) 17-57N 102-34E 171M
Feb 24, 2020 - 03:30 AM EST / 2020.02.24 0830 UTC
Wind: from the SSW (200 degrees) at 5 MPH (4 KT):0
Visibility: 4 mile(s):0
Sky conditions: partly cloudy
Temperature: 86 F (30 C)
Dew Point: 57 F (14 C)
Relative Humidity: 37%
Pressure (altimeter): 29.91 in. Hg (1013 hPa)
ob: VLVT 240830Z 20004KT 8000 SCT200 30/14 Q1013 NOSIG
cycle: 8

Station Type Date Time Source
VLVT TAF 2020/02/24 06:39 UTC NOAA

TAF TAF VLVT 240500Z 2406/2506 09006KT 8000 FEW020 FEW200

Example: see airport list